This is the latest recevied weather packets stored in our database for station/object IU1CYJ. If no packets are shown the sender has not sent any weather packets the latest 10 day(s).
| Time | Temp. | Humidity | Pressure | Rain* | Wind** | Luminosity | Snow |
|---|---|---|---|---|---|---|---|
| 1777687252 | 10.56° C | 81% | 1026.3 hPa | 0 mm | - | - | - |
| 1777681853 | 11.11° C | 78% | 1026.4 hPa | 0 mm | - | - | - |
| 1777680955 | 11.11° C | 78% | 1026.5 hPa | 0 mm | - | - | - |
| 1777675564 | 11.67° C | 74% | 1026.4 hPa | 0 mm | - | - | - |
| 1777673772 | 12.22° C | 75% | 1026.5 hPa | 0 mm | - | - | - |
| 1777665655 | 13.89° C | 66% | 1026 hPa | 0 mm | - | - | - |
| 1777661153 | 15° C | 59% | 1025.3 hPa | 0 mm | - | - | - |
| 1777654861 | 17.78° C | 48% | 1025.2 hPa | 0 mm | - | - | - |
| 1777644963 | 18.33° C | 47% | 1026.6 hPa | 0 mm | - | - | - |
| 1777641362 | 18.33° C | 45% | 1027.4 hPa | 0 mm | - | - | - |
| 1777635061 | 17.78° C | 43% | 1028.4 hPa | 0 mm | - | - | - |
| 1777634162 | 17.22° C | 43% | 1028.5 hPa | 0 mm | - | - | - |
| 1777631458 | 16.11° C | 46% | 1028.7 hPa | 0 mm | - | - | - |
| 1777623384 | 13.33° C | 59% | 1028.5 hPa | 0 mm | - | - | - |
| 1777605357 | 12.78° C | 76% | 1026 hPa | 0 mm | - | - | - |
| 1777602654 | 12.22° C | 78% | 1025.9 hPa | 0 mm | - | - | - |
| 1777599061 | 10.56° C | 85% | 1025.8 hPa | 0 mm | - | - | - |
| 1777597256 | 11.11° C | 83% | 1025.7 hPa | 0 mm | - | - | - |
| 1777591863 | 12.22° C | 76% | 1025.3 hPa | 0 mm | - | - | - |
| 1777588259 | 13.33° C | 75% | 1025.1 hPa | 0 mm | - | - | - |
| 1777587361 | 13.89° C | 76% | 1025 hPa | 0 mm | - | - | - |
| 1777581961 | 13.89° C | 72% | 1024.9 hPa | 0 mm | - | - | - |
| 1777581055 | 14.44° C | 71% | 1024.8 hPa | 0 mm | - | - | - |
| 1777572057 | 16.11° C | 61% | 1023.3 hPa | 0 mm | - | - | - |
| 1777569356 | 17.22° C | 57% | 1022.9 hPa | 0 mm | - | - | - |
* Rain latest hour (hover to see other rain measurements)
** Current wind speed in m/s (hover to see current wind gust speed)